sensor_id;sensor_type;location;lat;lon;timestamp;P1;durP1;ratioP1;P2;durP2;ratioP2
2544;SDS011;36212;48.838;9.142;2024-01-06T00:01:03;6.50;;;6.10;;
2544;SDS011;36212;48.838;9.142;2024-01-06T00:03:40;6.63;;;6.13;;
2544;SDS011;36212;48.838;9.142;2024-01-06T00:06:19;5.75;;;5.45;;
2544;SDS011;36212;48.838;9.142;2024-01-06T00:08:51;5.63;;;5.13;;
2544;SDS011;36212;48.838;9.142;2024-01-06T00:11:26;5.95;;;5.55;;
2544;SDS011;36212;48.838;9.142;2024-01-06T00:14:01;6.05;;;5.50;;
2544;SDS011;36212;48.838;9.142;2024-01-06T00:16:36;5.88;;;5.47;;
2544;SDS011;36212;48.838;9.142;2024-01-06T00:19:09;4.95;;;4.55;;
2544;SDS011;36212;48.838;9.142;2024-01-06T00:21:42;5.70;;;5.40;;
2544;SDS011;36212;48.838;9.142;2024-01-06T00:24:18;6.28;;;5.70;;
2544;SDS011;36212;48.838;9.142;2024-01-06T00:26:54;5.47;;;5.18;;
2544;SDS011;36212;48.838;9.142;2024-01-06T00:29:26;6.25;;;5.65;;
2544;SDS011;36212;48.838;9.142;2024-01-06T00:31:58;6.13;;;5.40;;
2544;SDS011;36212;48.838;9.142;2024-01-06T00:34:30;5.35;;;5.05;;
2544;SDS011;36212;48.838;9.142;2024-01-06T00:37:09;5.18;;;4.78;;
2544;SDS011;36212;48.838;9.142;2024-01-06T00:39:41;4.95;;;4.65;;
2544;SDS011;36212;48.838;9.142;2024-01-06T00:42:25;4.75;;;4.45;;
2544;SDS011;36212;48.838;9.142;2024-01-06T00:45:00;6.00;;;4.50;;
2544;SDS011;36212;48.838;9.142;2024-01-06T00:47:34;4.30;;;3.97;;
2544;SDS011;36212;48.838;9.142;2024-01-06T00:50:07;4.88;;;4.45;;
2544;SDS011;36212;48.838;9.142;2024-01-06T00:52:41;4.78;;;4.38;;
2544;SDS011;36212;48.838;9.142;2024-01-06T00:55:16;5.22;;;4.75;;
2544;SDS011;36212;48.838;9.142;2024-01-06T00:57:50;4.35;;;4.05;;
2544;SDS011;36212;48.838;9.142;2024-01-06T01:00:24;4.93;;;4.50;;
2544;SDS011;36212;48.838;9.142;2024-01-06T01:02:59;4.63;;;4.32;;
2544;SDS011;36212;48.838;9.142;2024-01-06T01:05:31;5.10;;;4.60;;
2544;SDS011;36212;48.838;9.142;2024-01-06T01:08:06;5.13;;;4.82;;
2544;SDS011;36212;48.838;9.142;2024-01-06T01:10:39;4.55;;;4.32;;
2544;SDS011;36212;48.838;9.142;2024-01-06T01:13:15;6.80;;;5.00;;
2544;SDS011;36212;48.838;9.142;2024-01-06T01:15:49;4.00;;;3.80;;
2544;SDS011;36212;48.838;9.142;2024-01-06T01:18:22;4.35;;;4.00;;
2544;SDS011;36212;48.838;9.142;2024-01-06T01:20:57;4.55;;;4.15;;
2544;SDS011;36212;48.838;9.142;2024-01-06T01:23:30;5.88;;;4.32;;
2544;SDS011;36212;48.838;9.142;2024-01-06T01:26:05;4.93;;;4.53;;
2544;SDS011;36212;48.838;9.142;2024-01-06T01:28:41;4.13;;;3.70;;
2544;SDS011;36212;48.838;9.142;2024-01-06T01:31:22;4.15;;;3.85;;
2544;SDS011;36212;48.838;9.142;2024-01-06T01:33:58;4.35;;;4.05;;
2544;SDS011;36212;48.838;9.142;2024-01-06T01:36:33;5.32;;;4.40;;
2544;SDS011;36212;48.838;9.142;2024-01-06T01:39:05;3.75;;;3.45;;
2544;SDS011;36212;48.838;9.142;2024-01-06T01:41:45;4.10;;;3.90;;
2544;SDS011;36212;48.838;9.142;2024-01-06T01:44:18;4.32;;;4.03;;
2544;SDS011;36212;48.838;9.142;2024-01-06T01:46:55;5.25;;;4.50;;
2544;SDS011;36212;48.838;9.142;2024-01-06T01:49:30;4.85;;;4.45;;
2544;SDS011;36212;48.838;9.142;2024-01-06T01:52:07;3.97;;;3.72;;
2544;SDS011;36212;48.838;9.142;2024-01-06T01:54:43;3.70;;;3.45;;
2544;SDS011;36212;48.838;9.142;2024-01-06T01:57:21;5.90;;;3.97;;
2544;SDS011;36212;48.838;9.142;2024-01-06T01:59:57;4.60;;;4.20;;
2544;SDS011;36212;48.838;9.142;2024-01-06T02:02:33;5.35;;;3.70;;
2544;SDS011;36212;48.838;9.142;2024-01-06T02:05:09;5.70;;;3.90;;
2544;SDS011;36212;48.838;9.142;2024-01-06T02:07:48;4.20;;;3.90;;
2544;SDS011;36212;48.838;9.142;2024-01-06T02:10:22;3.83;;;3.63;;
2544;SDS011;36212;48.838;9.142;2024-01-06T02:12:55;7.03;;;6.45;;
2544;SDS011;36212;48.838;9.142;2024-01-06T02:15:37;7.10;;;3.50;;
2544;SDS011;36212;48.838;9.142;2024-01-06T02:18:11;4.40;;;3.45;;
2544;SDS011;36212;48.838;9.142;2024-01-06T02:20:43;5.72;;;3.95;;
2544;SDS011;36212;48.838;9.142;2024-01-06T02:23:23;3.92;;;3.63;;
2544;SDS011;36212;48.838;9.142;2024-01-06T02:25:58;3.60;;;3.40;;
2544;SDS011;36212;48.838;9.142;2024-01-06T02:28:33;3.95;;;3.65;;
2544;SDS011;36212;48.838;9.142;2024-01-06T02:31:06;4.28;;;3.97;;
2544;SDS011;36212;48.838;9.142;2024-01-06T02:33:41;4.07;;;3.83;;
2544;SDS011;36212;48.838;9.142;2024-01-06T02:36:19;4.38;;;3.50;;
2544;SDS011;36212;48.838;9.142;2024-01-06T02:38:54;7.82;;;3.80;;
2544;SDS011;36212;48.838;9.142;2024-01-06T02:41:28;4.72;;;3.30;;
2544;SDS011;36212;48.838;9.142;2024-01-06T02:44:03;6.13;;;4.78;;
2544;SDS011;36212;48.838;9.142;2024-01-06T02:46:39;4.13;;;3.83;;
2544;SDS011;36212;48.838;9.142;2024-01-06T02:49:15;3.47;;;3.28;;
2544;SDS011;36212;48.838;9.142;2024-01-06T02:51:50;4.50;;;3.80;;
2544;SDS011;36212;48.838;9.142;2024-01-06T02:54:23;3.95;;;3.60;;
2544;SDS011;36212;48.838;9.142;2024-01-06T02:56:55;4.00;;;3.50;;
2544;SDS011;36212;48.838;9.142;2024-01-06T02:59:28;3.97;;;3.63;;
2544;SDS011;36212;48.838;9.142;2024-01-06T03:02:04;7.72;;;3.90;;
2544;SDS011;36212;48.838;9.142;2024-01-06T03:04:37;7.25;;;4.05;;
2544;SDS011;36212;48.838;9.142;2024-01-06T03:07:09;4.45;;;4.05;;
2544;SDS011;36212;48.838;9.142;2024-01-06T03:09:42;4.88;;;4.38;;
2544;SDS011;36212;48.838;9.142;2024-01-06T03:12:14;3.67;;;3.58;;
2544;SDS011;36212;48.838;9.142;2024-01-06T03:14:52;5.07;;;4.65;;
2544;SDS011;36212;48.838;9.142;2024-01-06T03:17:26;5.50;;;4.55;;
2544;SDS011;36212;48.838;9.142;2024-01-06T03:20:05;5.00;;;4.60;;
2544;SDS011;36212;48.838;9.142;2024-01-06T03:22:44;4.00;;;3.80;;
2544;SDS011;36212;48.838;9.142;2024-01-06T03:25:19;4.18;;;3.88;;
2544;SDS011;36212;48.838;9.142;2024-01-06T03:27:54;4.32;;;3.78;;
2544;SDS011;36212;48.838;9.142;2024-01-06T03:30:29;5.38;;;4.43;;
2544;SDS011;36212;48.838;9.142;2024-01-06T03:33:08;5.63;;;3.70;;
2544;SDS011;36212;48.838;9.142;2024-01-06T03:35:42;4.45;;;4.25;;
2544;SDS011;36212;48.838;9.142;2024-01-06T03:38:14;4.22;;;3.85;;
2544;SDS011;36212;48.838;9.142;2024-01-06T03:40:47;3.63;;;3.38;;
2544;SDS011;36212;48.838;9.142;2024-01-06T03:43:22;3.78;;;3.58;;
2544;SDS011;36212;48.838;9.142;2024-01-06T03:45:57;4.60;;;4.00;;
2544;SDS011;36212;48.838;9.142;2024-01-06T03:48:32;6.05;;;5.63;;
2544;SDS011;36212;48.838;9.142;2024-01-06T03:51:07;4.20;;;4.00;;
2544;SDS011;36212;48.838;9.142;2024-01-06T03:53:40;4.35;;;4.05;;
2544;SDS011;36212;48.838;9.142;2024-01-06T03:56:13;5.88;;;4.18;;
2544;SDS011;36212;48.838;9.142;2024-01-06T03:58:48;3.90;;;3.70;;
2544;SDS011;36212;48.838;9.142;2024-01-06T04:01:20;4.65;;;4.35;;
2544;SDS011;36212;48.838;9.142;2024-01-06T04:03:53;4.30;;;3.90;;
2544;SDS011;36212;48.838;9.142;2024-01-06T04:06:25;5.72;;;5.10;;
2544;SDS011;36212;48.838;9.142;2024-01-06T04:08:58;6.30;;;5.00;;
2544;SDS011;36212;48.838;9.142;2024-01-06T04:11:33;4.22;;;3.88;;
2544;SDS011;36212;48.838;9.142;2024-01-06T04:14:05;4.47;;;4.07;;
2544;SDS011;36212;48.838;9.142;2024-01-06T04:16:39;3.78;;;3.47;;
2544;SDS011;36212;48.838;9.142;2024-01-06T04:19:12;9.65;;;4.10;;
2544;SDS011;36212;48.838;9.142;2024-01-06T04:21:45;4.00;;;3.78;;
2544;SDS011;36212;48.838;9.142;2024-01-06T04:24:18;4.53;;;4.13;;
2544;SDS011;36212;48.838;9.142;2024-01-06T04:26:54;4.85;;;4.45;;
2544;SDS011;36212;48.838;9.142;2024-01-06T04:29:27;3.95;;;3.72;;
2544;SDS011;36212;48.838;9.142;2024-01-06T04:32:02;6.57;;;3.75;;
2544;SDS011;36212;48.838;9.142;2024-01-06T04:34:35;4.15;;;3.70;;
2544;SDS011;36212;48.838;9.142;2024-01-06T04:37:07;4.53;;;4.10;;
2544;SDS011;36212;48.838;9.142;2024-01-06T04:39:39;5.85;;;4.80;;
2544;SDS011;36212;48.838;9.142;2024-01-06T04:42:14;8.57;;;4.10;;
2544;SDS011;36212;48.838;9.142;2024-01-06T04:44:50;4.55;;;4.25;;
2544;SDS011;36212;48.838;9.142;2024-01-06T04:47:24;4.75;;;4.28;;
2544;SDS011;36212;48.838;9.142;2024-01-06T04:49:58;4.50;;;4.30;;
2544;SDS011;36212;48.838;9.142;2024-01-06T04:52:30;4.65;;;4.35;;
2544;SDS011;36212;48.838;9.142;2024-01-06T04:55:02;4.13;;;3.90;;
2544;SDS011;36212;48.838;9.142;2024-01-06T04:57:37;5.25;;;3.72;;
2544;SDS011;36212;48.838;9.142;2024-01-06T05:00:10;3.90;;;3.60;;
2544;SDS011;36212;48.838;9.142;2024-01-06T05:02:46;5.45;;;4.45;;
2544;SDS011;36212;48.838;9.142;2024-01-06T05:05:21;5.00;;;4.40;;
2544;SDS011;36212;48.838;9.142;2024-01-06T05:07:55;4.20;;;3.90;;
2544;SDS011;36212;48.838;9.142;2024-01-06T05:10:33;6.28;;;4.95;;
2544;SDS011;36212;48.838;9.142;2024-01-06T05:13:05;4.78;;;4.25;;
2544;SDS011;36212;48.838;9.142;2024-01-06T05:15:38;4.43;;;4.22;;
2544;SDS011;36212;48.838;9.142;2024-01-06T05:18:15;4.40;;;4.10;;
2544;SDS011;36212;48.838;9.142;2024-01-06T05:20:48;3.28;;;3.08;;
2544;SDS011;36212;48.838;9.142;2024-01-06T05:23:20;4.90;;;4.60;;
2544;SDS011;36212;48.838;9.142;2024-01-06T05:25:52;4.60;;;4.10;;
2544;SDS011;36212;48.838;9.142;2024-01-06T05:28:25;4.93;;;4.50;;
2544;SDS011;36212;48.838;9.142;2024-01-06T05:30:57;5.60;;;4.60;;
2544;SDS011;36212;48.838;9.142;2024-01-06T05:33:36;4.57;;;4.28;;
2544;SDS011;36212;48.838;9.142;2024-01-06T05:36:09;5.10;;;4.70;;
2544;SDS011;36212;48.838;9.142;2024-01-06T05:38:42;4.22;;;3.88;;
2544;SDS011;36212;48.838;9.142;2024-01-06T05:41:24;4.45;;;4.13;;
2544;SDS011;36212;48.838;9.142;2024-01-06T05:43:59;6.47;;;4.80;;
2544;SDS011;36212;48.838;9.142;2024-01-06T05:46:35;4.55;;;4.25;;
2544;SDS011;36212;48.838;9.142;2024-01-06T05:49:07;7.32;;;4.32;;
2544;SDS011;36212;48.838;9.142;2024-01-06T05:51:44;5.30;;;4.80;;
2544;SDS011;36212;48.838;9.142;2024-01-06T05:54:17;4.55;;;4.35;;
2544;SDS011;36212;48.838;9.142;2024-01-06T05:56:49;5.22;;;4.50;;
2544;SDS011;36212;48.838;9.142;2024-01-06T05:59:21;5.47;;;4.88;;
2544;SDS011;36212;48.838;9.142;2024-01-06T06:02:03;6.35;;;4.60;;
2544;SDS011;36212;48.838;9.142;2024-01-06T06:04:35;5.00;;;4.60;;
2544;SDS011;36212;48.838;9.142;2024-01-06T06:07:10;5.05;;;4.82;;
2544;SDS011;36212;48.838;9.142;2024-01-06T06:09:42;5.40;;;5.00;;
2544;SDS011;36212;48.838;9.142;2024-01-06T06:12:17;5.60;;;5.20;;
2544;SDS011;36212;48.838;9.142;2024-01-06T06:14:49;4.28;;;4.07;;
2544;SDS011;36212;48.838;9.142;2024-01-06T06:17:24;4.88;;;4.63;;
2544;SDS011;36212;48.838;9.142;2024-01-06T06:19:58;7.35;;;4.90;;
2544;SDS011;36212;48.838;9.142;2024-01-06T06:22:38;4.95;;;4.45;;
2544;SDS011;36212;48.838;9.142;2024-01-06T06:25:13;4.65;;;4.45;;
2544;SDS011;36212;48.838;9.142;2024-01-06T06:27:48;5.80;;;5.25;;
2544;SDS011;36212;48.838;9.142;2024-01-06T06:30:22;6.25;;;5.63;;
2544;SDS011;36212;48.838;9.142;2024-01-06T06:32:56;5.65;;;5.20;;
2544;SDS011;36212;48.838;9.142;2024-01-06T06:35:29;5.35;;;4.95;;
2544;SDS011;36212;48.838;9.142;2024-01-06T06:38:04;5.60;;;5.30;;
2544;SDS011;36212;48.838;9.142;2024-01-06T06:40:44;5.35;;;5.05;;
2544;SDS011;36212;48.838;9.142;2024-01-06T06:43:17;5.00;;;4.70;;
2544;SDS011;36212;48.838;9.142;2024-01-06T06:45:50;5.75;;;4.97;;
2544;SDS011;36212;48.838;9.142;2024-01-06T06:48:25;6.85;;;5.03;;
2544;SDS011;36212;48.838;9.142;2024-01-06T06:50:58;5.78;;;5.32;;
2544;SDS011;36212;48.838;9.142;2024-01-06T06:53:32;6.10;;;5.60;;
2544;SDS011;36212;48.838;9.142;2024-01-06T06:56:08;4.72;;;4.43;;
2544;SDS011;36212;48.838;9.142;2024-01-06T06:58:44;5.20;;;4.80;;
2544;SDS011;36212;48.838;9.142;2024-01-06T07:01:22;5.47;;;5.00;;
2544;SDS011;36212;48.838;9.142;2024-01-06T07:03:55;5.88;;;5.30;;
2544;SDS011;36212;48.838;9.142;2024-01-06T07:06:30;6.60;;;5.78;;
2544;SDS011;36212;48.838;9.142;2024-01-06T07:09:08;7.00;;;6.45;;
2544;SDS011;36212;48.838;9.142;2024-01-06T07:11:41;5.88;;;5.50;;
2544;SDS011;36212;48.838;9.142;2024-01-06T07:14:16;14.35;;;6.13;;
2544;SDS011;36212;48.838;9.142;2024-01-06T07:16:51;6.22;;;5.85;;
2544;SDS011;36212;48.838;9.142;2024-01-06T07:19:23;6.70;;;6.25;;
2544;SDS011;36212;48.838;9.142;2024-01-06T07:21:56;5.78;;;5.40;;
2544;SDS011;36212;48.838;9.142;2024-01-06T07:24:29;6.32;;;5.93;;
2544;SDS011;36212;48.838;9.142;2024-01-06T07:27:01;6.20;;;5.60;;
2544;SDS011;36212;48.838;9.142;2024-01-06T07:29:35;5.60;;;5.20;;
2544;SDS011;36212;48.838;9.142;2024-01-06T07:32:07;6.28;;;5.68;;
2544;SDS011;36212;48.838;9.142;2024-01-06T07:34:40;6.35;;;5.85;;
2544;SDS011;36212;48.838;9.142;2024-01-06T07:37:16;6.40;;;5.85;;
2544;SDS011;36212;48.838;9.142;2024-01-06T07:39:50;5.93;;;5.43;;
2544;SDS011;36212;48.838;9.142;2024-01-06T07:42:23;5.80;;;5.50;;
2544;SDS011;36212;48.838;9.142;2024-01-06T07:44:55;5.40;;;5.10;;
2544;SDS011;36212;48.838;9.142;2024-01-06T07:47:27;5.85;;;5.55;;
2544;SDS011;36212;48.838;9.142;2024-01-06T07:50:00;5.68;;;5.35;;
2544;SDS011;36212;48.838;9.142;2024-01-06T07:52:39;6.10;;;5.70;;
2544;SDS011;36212;48.838;9.142;2024-01-06T07:55:19;6.05;;;5.63;;
2544;SDS011;36212;48.838;9.142;2024-01-06T07:58:01;5.20;;;4.90;;
2544;SDS011;36212;48.838;9.142;2024-01-06T08:00:43;6.00;;;5.05;;
2544;SDS011;36212;48.838;9.142;2024-01-06T08:03:15;5.55;;;5.00;;
2544;SDS011;36212;48.838;9.142;2024-01-06T08:05:49;6.20;;;5.72;;
2544;SDS011;36212;48.838;9.142;2024-01-06T08:08:28;5.50;;;5.05;;
2544;SDS011;36212;48.838;9.142;2024-01-06T08:11:00;5.63;;;5.18;;
2544;SDS011;36212;48.838;9.142;2024-01-06T08:13:33;5.25;;;4.55;;
2544;SDS011;36212;48.838;9.142;2024-01-06T08:16:08;5.70;;;4.80;;
2544;SDS011;36212;48.838;9.142;2024-01-06T08:18:48;4.32;;;4.13;;
2544;SDS011;36212;48.838;9.142;2024-01-06T08:21:28;4.88;;;4.57;;
2544;SDS011;36212;48.838;9.142;2024-01-06T08:24:00;4.40;;;4.18;;
2544;SDS011;36212;48.838;9.142;2024-01-06T08:26:34;4.80;;;4.40;;
2544;SDS011;36212;48.838;9.142;2024-01-06T08:29:06;4.50;;;4.20;;
2544;SDS011;36212;48.838;9.142;2024-01-06T08:31:41;4.80;;;4.53;;
2544;SDS011;36212;48.838;9.142;2024-01-06T08:34:14;4.90;;;4.60;;
2544;SDS011;36212;48.838;9.142;2024-01-06T08:36:49;4.47;;;4.28;;
2544;SDS011;36212;48.838;9.142;2024-01-06T08:39:23;5.03;;;4.22;;
2544;SDS011;36212;48.838;9.142;2024-01-06T08:42:00;4.35;;;4.15;;
2544;SDS011;36212;48.838;9.142;2024-01-06T08:44:33;4.18;;;3.90;;
2544;SDS011;36212;48.838;9.142;2024-01-06T08:47:09;4.60;;;4.40;;
2544;SDS011;36212;48.838;9.142;2024-01-06T08:49:44;4.00;;;3.75;;
2544;SDS011;36212;48.838;9.142;2024-01-06T08:52:16;4.45;;;4.25;;
2544;SDS011;36212;48.838;9.142;2024-01-06T08:54:48;4.60;;;4.30;;
2544;SDS011;36212;48.838;9.142;2024-01-06T08:57:21;5.30;;;5.00;;
2544;SDS011;36212;48.838;9.142;2024-01-06T08:59:54;6.43;;;4.10;;
2544;SDS011;36212;48.838;9.142;2024-01-06T09:02:29;5.13;;;4.78;;
2544;SDS011;36212;48.838;9.142;2024-01-06T09:05:04;5.22;;;4.93;;
2544;SDS011;36212;48.838;9.142;2024-01-06T09:07:37;5.00;;;4.60;;
2544;SDS011;36212;48.838;9.142;2024-01-06T09:10:09;5.15;;;4.75;;
2544;SDS011;36212;48.838;9.142;2024-01-06T09:12:42;3.97;;;3.78;;
2544;SDS011;36212;48.838;9.142;2024-01-06T09:15:20;4.82;;;4.40;;
2544;SDS011;36212;48.838;9.142;2024-01-06T09:17:54;4.20;;;4.00;;
2544;SDS011;36212;48.838;9.142;2024-01-06T09:20:30;4.28;;;4.07;;
2544;SDS011;36212;48.838;9.142;2024-01-06T09:23:06;4.15;;;3.95;;
2544;SDS011;36212;48.838;9.142;2024-01-06T09:25:39;6.00;;;3.88;;
2544;SDS011;36212;48.838;9.142;2024-01-06T09:28:14;5.38;;;4.00;;
2544;SDS011;36212;48.838;9.142;2024-01-06T09:30:51;4.68;;;4.28;;
2544;SDS011;36212;48.838;9.142;2024-01-06T09:33:26;4.10;;;3.90;;
2544;SDS011;36212;48.838;9.142;2024-01-06T09:36:04;4.05;;;3.85;;
2544;SDS011;36212;48.838;9.142;2024-01-06T09:38:39;4.30;;;4.10;;
2544;SDS011;36212;48.838;9.142;2024-01-06T09:41:11;4.10;;;3.90;;
2544;SDS011;36212;48.838;9.142;2024-01-06T09:43:44;3.95;;;3.75;;
2544;SDS011;36212;48.838;9.142;2024-01-06T09:46:21;4.68;;;4.35;;
2544;SDS011;36212;48.838;9.142;2024-01-06T09:49:01;4.10;;;3.90;;
2544;SDS011;36212;48.838;9.142;2024-01-06T09:51:39;4.15;;;3.85;;
2544;SDS011;36212;48.838;9.142;2024-01-06T09:54:12;3.60;;;3.40;;
2544;SDS011;36212;48.838;9.142;2024-01-06T09:56:53;4.43;;;4.13;;
2544;SDS011;36212;48.838;9.142;2024-01-06T09:59:31;4.13;;;3.80;;
2544;SDS011;36212;48.838;9.142;2024-01-06T10:02:11;3.80;;;3.60;;
2544;SDS011;36212;48.838;9.142;2024-01-06T10:04:56;4.60;;;4.30;;
2544;SDS011;36212;48.838;9.142;2024-01-06T10:07:29;4.90;;;4.60;;
2544;SDS011;36212;48.838;9.142;2024-01-06T10:10:07;4.50;;;4.20;;
2544;SDS011;36212;48.838;9.142;2024-01-06T10:12:45;3.95;;;3.75;;
2544;SDS011;36212;48.838;9.142;2024-01-06T10:15:23;4.50;;;4.20;;
2544;SDS011;36212;48.838;9.142;2024-01-06T10:18:02;4.28;;;3.97;;
2544;SDS011;36212;48.838;9.142;2024-01-06T10:20:38;3.97;;;3.78;;
2544;SDS011;36212;48.838;9.142;2024-01-06T10:23:14;3.45;;;3.15;;
2544;SDS011;36212;48.838;9.142;2024-01-06T10:25:53;4.22;;;3.97;;
2544;SDS011;36212;48.838;9.142;2024-01-06T10:28:29;3.67;;;3.30;;
2544;SDS011;36212;48.838;9.142;2024-01-06T10:31:02;3.65;;;3.50;;
2544;SDS011;36212;48.838;9.142;2024-01-06T10:33:38;3.85;;;3.67;;
2544;SDS011;36212;48.838;9.142;2024-01-06T10:36:11;3.90;;;3.70;;
2544;SDS011;36212;48.838;9.142;2024-01-06T10:38:46;5.38;;;3.72;;
2544;SDS011;36212;48.838;9.142;2024-01-06T10:41:22;4.45;;;4.00;;
2544;SDS011;36212;48.838;9.142;2024-01-06T10:43:58;4.25;;;4.05;;
2544;SDS011;36212;48.838;9.142;2024-01-06T10:46:37;4.13;;;3.92;;
2544;SDS011;36212;48.838;9.142;2024-01-06T10:49:14;5.45;;;4.25;;
2544;SDS011;36212;48.838;9.142;2024-01-06T10:51:52;4.30;;;4.10;;
2544;SDS011;36212;48.838;9.142;2024-01-06T10:54:27;3.53;;;3.40;;
2544;SDS011;36212;48.838;9.142;2024-01-06T10:57:03;4.13;;;3.92;;
2544;SDS011;36212;48.838;9.142;2024-01-06T10:59:39;4.97;;;4.78;;
2544;SDS011;36212;48.838;9.142;2024-01-06T11:02:19;4.57;;;4.38;;
2544;SDS011;36212;48.838;9.142;2024-01-06T11:04:56;4.90;;;4.70;;
2544;SDS011;36212;48.838;9.142;2024-01-06T11:07:32;4.45;;;4.25;;
2544;SDS011;36212;48.838;9.142;2024-01-06T11:10:09;4.43;;;4.22;;
2544;SDS011;36212;48.838;9.142;2024-01-06T11:13:11;4.40;;;4.20;;
2544;SDS011;36212;48.838;9.142;2024-01-06T11:15:52;6.80;;;6.40;;
2544;SDS011;36212;48.838;9.142;2024-01-06T11:18:39;5.25;;;4.85;;
2544;SDS011;36212;48.838;9.142;2024-01-06T11:21:19;5.40;;;5.10;;
2544;SDS011;36212;48.838;9.142;2024-01-06T11:26:57;5.75;;;5.35;;
2544;SDS011;36212;48.838;9.142;2024-01-06T11:29:51;5.00;;;4.70;;
2544;SDS011;36212;48.838;9.142;2024-01-06T11:32:33;5.90;;;5.50;;
2544;SDS011;36212;48.838;9.142;2024-01-06T11:35:17;5.20;;;4.90;;
2544;SDS011;36212;48.838;9.142;2024-01-06T11:37:58;5.85;;;5.55;;
2544;SDS011;36212;48.838;9.142;2024-01-06T11:40:37;5.70;;;5.30;;
2544;SDS011;36212;48.838;9.142;2024-01-06T11:43:10;5.53;;;5.07;;
2544;SDS011;36212;48.838;9.142;2024-01-06T11:45:57;5.70;;;5.25;;
2544;SDS011;36212;48.838;9.142;2024-01-06T11:48:35;6.10;;;5.70;;
2544;SDS011;36212;48.838;9.142;2024-01-06T11:51:12;6.30;;;5.90;;
2544;SDS011;36212;48.838;9.142;2024-01-06T11:53:45;6.00;;;5.50;;
2544;SDS011;36212;48.838;9.142;2024-01-06T11:56:18;6.38;;;5.93;;
2544;SDS011;36212;48.838;9.142;2024-01-06T11:58:55;6.43;;;6.03;;
2544;SDS011;36212;48.838;9.142;2024-01-06T12:01:38;6.60;;;5.95;;
2544;SDS011;36212;48.838;9.142;2024-01-06T12:04:15;6.10;;;5.60;;
2544;SDS011;36212;48.838;9.142;2024-01-06T12:06:52;6.68;;;6.22;;
2544;SDS011;36212;48.838;9.142;2024-01-06T12:09:42;6.32;;;5.93;;
2544;SDS011;36212;48.838;9.142;2024-01-06T12:12:17;7.00;;;6.40;;
2544;SDS011;36212;48.838;9.142;2024-01-06T12:14:50;7.22;;;6.57;;
2544;SDS011;36212;48.838;9.142;2024-01-06T12:17:23;7.07;;;6.50;;
2544;SDS011;36212;48.838;9.142;2024-01-06T12:20:06;7.00;;;6.60;;
2544;SDS011;36212;48.838;9.142;2024-01-06T12:22:46;6.88;;;6.32;;
2544;SDS011;36212;48.838;9.142;2024-01-06T12:25:23;6.35;;;5.80;;
2544;SDS011;36212;48.838;9.142;2024-01-06T12:28:05;6.53;;;6.03;;
2544;SDS011;36212;48.838;9.142;2024-01-06T12:30:41;8.48;;;6.28;;
2544;SDS011;36212;48.838;9.142;2024-01-06T12:33:16;6.97;;;6.47;;
2544;SDS011;36212;48.838;9.142;2024-01-06T12:35:50;6.53;;;6.13;;
2544;SDS011;36212;48.838;9.142;2024-01-06T12:38:32;7.13;;;6.63;;
2544;SDS011;36212;48.838;9.142;2024-01-06T12:41:05;7.45;;;6.50;;
2544;SDS011;36212;48.838;9.142;2024-01-06T12:43:41;6.80;;;6.30;;
2544;SDS011;36212;48.838;9.142;2024-01-06T12:46:18;6.30;;;5.82;;
2544;SDS011;36212;48.838;9.142;2024-01-06T12:48:54;6.82;;;6.22;;
2544;SDS011;36212;48.838;9.142;2024-01-06T12:51:29;6.80;;;6.35;;
2544;SDS011;36212;48.838;9.142;2024-01-06T12:54:03;7.07;;;6.57;;
2544;SDS011;36212;48.838;9.142;2024-01-06T12:56:40;9.15;;;8.35;;
2544;SDS011;36212;48.838;9.142;2024-01-06T12:59:13;6.93;;;6.43;;
2544;SDS011;36212;48.838;9.142;2024-01-06T13:01:49;6.80;;;6.35;;
2544;SDS011;36212;48.838;9.142;2024-01-06T13:04:22;7.45;;;7.03;;
2544;SDS011;36212;48.838;9.142;2024-01-06T13:06:56;8.00;;;7.30;;
2544;SDS011;36212;48.838;9.142;2024-01-06T13:09:35;7.50;;;6.93;;
2544;SDS011;36212;48.838;9.142;2024-01-06T13:12:10;7.40;;;6.90;;
2544;SDS011;36212;48.838;9.142;2024-01-06T13:14:43;7.80;;;7.10;;
2544;SDS011;36212;48.838;9.142;2024-01-06T13:17:22;8.30;;;7.60;;
2544;SDS011;36212;48.838;9.142;2024-01-06T13:20:00;8.10;;;6.95;;
2544;SDS011;36212;48.838;9.142;2024-01-06T13:22:34;7.90;;;7.30;;
2544;SDS011;36212;48.838;9.142;2024-01-06T13:25:13;8.90;;;8.20;;
2544;SDS011;36212;48.838;9.142;2024-01-06T13:27:48;8.38;;;7.68;;
2544;SDS011;36212;48.838;9.142;2024-01-06T13:30:29;8.93;;;8.23;;
2544;SDS011;36212;48.838;9.142;2024-01-06T13:33:02;9.27;;;8.57;;
2544;SDS011;36212;48.838;9.142;2024-01-06T13:35:39;9.02;;;8.32;;
2544;SDS011;36212;48.838;9.142;2024-01-06T13:38:13;9.15;;;8.38;;
2544;SDS011;36212;48.838;9.142;2024-01-06T13:40:47;9.25;;;8.48;;
2544;SDS011;36212;48.838;9.142;2024-01-06T13:43:20;9.25;;;8.10;;
2544;SDS011;36212;48.838;9.142;2024-01-06T13:45:55;9.50;;;8.70;;
2544;SDS011;36212;48.838;9.142;2024-01-06T13:48:34;10.15;;;9.35;;
2544;SDS011;36212;48.838;9.142;2024-01-06T13:51:11;9.43;;;8.75;;
2544;SDS011;36212;48.838;9.142;2024-01-06T13:53:47;9.73;;;8.77;;
2544;SDS011;36212;48.838;9.142;2024-01-06T13:56:24;9.93;;;9.13;;
2544;SDS011;36212;48.838;9.142;2024-01-06T13:59:05;9.52;;;8.73;;
2544;SDS011;36212;48.838;9.142;2024-01-06T14:01:47;9.45;;;8.60;;
2544;SDS011;36212;48.838;9.142;2024-01-06T14:04:23;10.10;;;9.07;;
2544;SDS011;36212;48.838;9.142;2024-01-06T14:06:56;10.05;;;9.15;;
2544;SDS011;36212;48.838;9.142;2024-01-06T14:09:32;9.48;;;8.68;;
2544;SDS011;36212;48.838;9.142;2024-01-06T14:12:06;9.73;;;9.02;;
2544;SDS011;36212;48.838;9.142;2024-01-06T14:14:39;10.23;;;9.43;;
2544;SDS011;36212;48.838;9.142;2024-01-06T14:17:16;11.32;;;10.27;;
2544;SDS011;36212;48.838;9.142;2024-01-06T14:19:49;10.77;;;9.85;;
2544;SDS011;36212;48.838;9.142;2024-01-06T14:22:23;11.13;;;10.13;;
2544;SDS011;36212;48.838;9.142;2024-01-06T14:28:34;10.07;;;9.30;;
2544;SDS011;36212;48.838;9.142;2024-01-06T14:31:07;10.80;;;9.80;;
2544;SDS011;36212;48.838;9.142;2024-01-06T14:33:42;11.43;;;10.48;;
2544;SDS011;36212;48.838;9.142;2024-01-06T14:36:15;11.18;;;10.38;;
2544;SDS011;36212;48.838;9.142;2024-01-06T14:38:48;12.07;;;10.95;;
2544;SDS011;36212;48.838;9.142;2024-01-06T14:41:22;11.30;;;10.40;;
2544;SDS011;36212;48.838;9.142;2024-01-06T14:43:57;10.90;;;10.02;;
2544;SDS011;36212;48.838;9.142;2024-01-06T14:46:35;11.05;;;9.90;;
2544;SDS011;36212;48.838;9.142;2024-01-06T14:49:11;10.38;;;9.57;;
2544;SDS011;36212;48.838;9.142;2024-01-06T14:51:47;10.80;;;9.75;;
2544;SDS011;36212;48.838;9.142;2024-01-06T14:54:26;11.05;;;9.30;;
2544;SDS011;36212;48.838;9.142;2024-01-06T14:57:09;10.75;;;9.75;;
2544;SDS011;36212;48.838;9.142;2024-01-06T14:59:42;9.30;;;8.55;;
2544;SDS011;36212;48.838;9.142;2024-01-06T15:02:20;11.25;;;10.40;;
2544;SDS011;36212;48.838;9.142;2024-01-06T15:04:54;12.65;;;11.40;;
2544;SDS011;36212;48.838;9.142;2024-01-06T15:07:30;11.10;;;10.10;;
2544;SDS011;36212;48.838;9.142;2024-01-06T15:10:08;11.70;;;10.60;;
2544;SDS011;36212;48.838;9.142;2024-01-06T15:12:47;11.48;;;10.55;;
2544;SDS011;36212;48.838;9.142;2024-01-06T15:15:23;11.20;;;10.20;;
2544;SDS011;36212;48.838;9.142;2024-01-06T15:17:56;12.18;;;11.07;;
2544;SDS011;36212;48.838;9.142;2024-01-06T15:20:30;11.98;;;10.88;;
2544;SDS011;36212;48.838;9.142;2024-01-06T15:23:05;11.93;;;10.93;;
2544;SDS011;36212;48.838;9.142;2024-01-06T15:25:41;13.70;;;12.27;;
2544;SDS011;36212;48.838;9.142;2024-01-06T15:28:15;11.98;;;10.80;;
2544;SDS011;36212;48.838;9.142;2024-01-06T15:30:50;12.25;;;11.05;;
2544;SDS011;36212;48.838;9.142;2024-01-06T15:33:30;12.95;;;11.63;;
2544;SDS011;36212;48.838;9.142;2024-01-06T15:36:08;11.55;;;10.45;;
2544;SDS011;36212;48.838;9.142;2024-01-06T15:38:41;12.95;;;11.85;;
2544;SDS011;36212;48.838;9.142;2024-01-06T15:41:14;14.05;;;12.55;;
2544;SDS011;36212;48.838;9.142;2024-01-06T15:43:48;14.48;;;12.73;;
2544;SDS011;36212;48.838;9.142;2024-01-06T15:46:25;13.70;;;12.32;;
2544;SDS011;36212;48.838;9.142;2024-01-06T15:48:59;15.25;;;13.82;;
2544;SDS011;36212;48.838;9.142;2024-01-06T15:51:32;15.30;;;13.85;;
2544;SDS011;36212;48.838;9.142;2024-01-06T15:54:05;13.45;;;12.23;;